createdAt,value
2019-03-11T00:00:30.670Z,65.20
2019-03-11T00:02:59.826Z,65.10
2019-03-11T00:05:28.871Z,65.20
2019-03-11T00:07:57.671Z,65.00
2019-03-11T00:10:26.352Z,65.80
2019-03-11T00:12:55.443Z,65.40
2019-03-11T00:15:24.190Z,64.70
2019-03-11T00:17:52.637Z,65.20
2019-03-11T00:20:21.194Z,64.70
2019-03-11T00:22:50.241Z,64.40
2019-03-11T00:25:19.038Z,64.50
2019-03-11T00:27:47.478Z,64.60
2019-03-11T00:30:16.401Z,64.20
2019-03-11T00:32:45.088Z,63.70
2019-03-11T00:35:13.762Z,64.10
2019-03-11T00:37:42.924Z,64.00
2019-03-11T00:40:13.526Z,65.20
2019-03-11T00:42:42.286Z,63.40
2019-03-11T00:45:15.574Z,63.30
2019-03-11T00:47:44.374Z,63.20
2019-03-11T00:50:13.653Z,63.70
2019-03-11T00:52:42.565Z,63.70
2019-03-11T00:55:12.219Z,63.80
2019-03-11T00:57:41.381Z,64.60
2019-03-11T01:00:28.062Z,63.50
2019-03-11T01:02:56.625Z,64.10
2019-03-11T01:05:25.309Z,64.20
2019-03-11T01:07:53.867Z,64.80
2019-03-11T01:10:22.792Z,64.70
2019-03-11T01:12:51.704Z,64.70
2019-03-11T01:15:20.994Z,64.40
2019-03-11T01:17:49.552Z,64.40
2019-03-11T01:20:18.479Z,65.10
2019-03-11T01:22:47.157Z,65.40
2019-03-11T01:25:15.957Z,65.50
2019-03-11T01:27:45.120Z,65.40
2019-03-11T01:30:15.961Z,66.20
2019-03-11T01:32:44.886Z,67.00
2019-03-11T01:35:13.442Z,66.90
2019-03-11T01:37:42.123Z,67.40
2019-03-11T01:40:13.568Z,68.30
2019-03-11T01:42:42.371Z,69.10
2019-03-11T01:45:13.217Z,69.30
2019-03-11T01:47:41.774Z,69.90
2019-03-11T01:50:11.652Z,70.70
2019-03-11T01:52:40.576Z,70.90
2019-03-11T01:55:11.055Z,71.00
2019-03-11T01:57:39.858Z,71.90
2019-03-11T02:00:11.299Z,72.30
2019-03-11T02:02:40.617Z,72.80
2019-03-11T02:05:09.150Z,72.90
2019-03-11T02:07:37.824Z,73.20
2019-03-11T02:10:12.384Z,73.50
2019-03-11T02:12:41.476Z,73.90
2019-03-11T02:15:13.467Z,74.10
2019-03-11T02:17:42.147Z,74.10
2019-03-11T02:20:16.595Z,74.10
2019-03-11T02:22:45.750Z,74.30
2019-03-11T02:25:14.700Z,74.40
2019-03-11T02:27:43.475Z,75.80
2019-03-11T02:30:14.796Z,76.90
2019-03-11T02:32:43.611Z,76.70
2019-03-11T02:35:12.370Z,77.50
2019-03-11T02:37:40.966Z,78.50
2019-03-11T02:40:12.645Z,78.20
2019-03-11T02:42:41.323Z,77.50
2019-03-11T02:45:10.612Z,77.80
2019-03-11T02:47:39.293Z,77.50
2019-03-11T02:50:09.412Z,77.80
2019-03-11T02:52:38.100Z,76.80
2019-03-11T02:55:07.043Z,76.70
2019-03-11T02:57:35.453Z,76.90
2019-03-11T03:00:05.941Z,76.10
2019-03-11T03:02:39.185Z,75.90
2019-03-11T03:05:13.742Z,75.60
2019-03-11T03:07:42.422Z,75.00
2019-03-11T03:10:11.104Z,75.60
2019-03-11T03:12:39.787Z,75.50
2019-03-11T03:15:09.675Z,75.10
2019-03-11T03:17:38.113Z,74.90
2019-03-11T03:20:09.951Z,75.20
2019-03-11T03:22:38.354Z,74.90
2019-03-11T03:25:09.071Z,74.90
2019-03-11T03:27:37.775Z,75.20
2019-03-11T03:30:09.444Z,75.00
2019-03-11T03:32:37.397Z,74.20
2019-03-11T03:35:06.690Z,74.70
2019-03-11T03:37:35.361Z,74.20
2019-03-11T03:40:05.725Z,74.60
2019-03-11T03:42:34.319Z,73.80
2019-03-11T03:45:25.404Z,73.70
2019-03-11T03:47:53.850Z,73.60
2019-03-11T03:50:33.325Z,73.80
2019-03-11T03:53:01.891Z,73.60
2019-03-11T03:55:30.337Z,73.30
2019-03-11T03:57:58.775Z,73.60
2019-03-11T04:00:27.331Z,73.40
2019-03-11T04:02:55.776Z,73.10
2019-03-11T04:05:24.221Z,73.40
2019-03-11T04:07:52.783Z,73.30
2019-03-11T04:10:21.231Z,73.10
2019-03-11T04:12:49.663Z,72.90
2019-03-11T04:15:18.343Z,72.80
2019-03-11T04:17:46.785Z,72.60
2019-03-11T04:20:20.986Z,72.00
2019-03-11T04:22:49.425Z,72.00
2019-03-11T04:25:17.873Z,72.00
2019-03-11T04:27:46.335Z,72.90
2019-03-11T04:30:18.111Z,71.50
2019-03-11T04:32:46.554Z,70.60
2019-03-11T04:35:14.998Z,69.50
2019-03-11T04:37:43.453Z,69.50
2019-03-11T04:40:13.559Z,68.90
2019-03-11T04:42:42.003Z,68.20
2019-03-11T04:45:13.322Z,68.20
2019-03-11T04:47:42.003Z,68.10
2019-03-11T04:50:17.652Z,67.30
2019-03-11T04:52:46.086Z,66.70
2019-03-11T04:55:15.247Z,67.00
2019-03-11T04:57:49.694Z,66.90
2019-03-11T05:00:20.171Z,66.60
2019-03-11T05:02:48.625Z,68.70
2019-03-11T05:05:17.051Z,68.70
2019-03-11T05:07:45.739Z,68.90
2019-03-11T05:10:16.265Z,70.00
2019-03-11T05:12:44.904Z,71.90
2019-03-11T05:15:14.066Z,74.10
2019-03-11T05:17:42.504Z,76.10
2019-03-11T05:20:12.626Z,76.80
2019-03-11T05:22:41.182Z,78.00
2019-03-11T05:25:12.987Z,78.00
2019-03-11T05:27:41.547Z,77.90
2019-03-11T05:30:19.830Z,76.70
2019-03-11T05:32:49.590Z,76.00
2019-03-11T05:35:18.271Z,74.50
2019-03-11T05:37:46.714Z,74.90
2019-03-11T05:40:21.634Z,74.40
2019-03-11T05:42:50.078Z,74.20
2019-03-11T05:45:21.643Z,73.90
2019-03-11T05:47:50.086Z,74.00
2019-03-11T05:50:19.126Z,73.70
2019-03-11T05:52:47.689Z,74.20
2019-03-11T05:55:16.253Z,73.50
2019-03-11T05:57:44.929Z,73.90
2019-03-11T06:00:32.450Z,73.80
2019-03-11T06:03:01.129Z,74.60
2019-03-11T06:05:29.697Z,73.90
2019-03-11T06:07:58.373Z,73.80
2019-03-11T06:10:26.815Z,74.20
2019-03-11T06:12:55.256Z,73.70
2019-03-11T06:15:23.815Z,74.20
2019-03-11T06:17:52.305Z,74.30
2019-03-11T06:20:28.381Z,74.80
2019-03-11T06:22:57.186Z,74.60
2019-03-11T06:25:25.623Z,74.20
2019-03-11T06:27:54.066Z,75.80
2019-03-11T06:30:22.513Z,74.50
2019-03-11T06:32:50.947Z,74.70
2019-03-11T06:35:19.754Z,74.30
2019-03-11T06:37:48.431Z,74.10
2019-03-11T06:40:16.995Z,73.70
2019-03-11T06:42:45.554Z,73.80
2019-03-11T06:45:14.595Z,75.00
2019-03-11T06:47:43.278Z,73.90
2019-03-11T06:50:13.897Z,73.60
2019-03-11T06:52:42.561Z,73.70
2019-03-11T06:55:11.844Z,72.90
2019-03-11T06:57:40.523Z,72.50
2019-03-11T07:00:16.644Z,72.00
2019-03-11T07:02:45.570Z,72.30
2019-03-11T07:05:20.072Z,72.70
2019-03-11T07:07:44.492Z,72.20
2019-03-11T07:10:16.416Z,72.00
2019-03-11T07:12:45.109Z,71.60
2019-03-11T07:15:14.741Z,72.30
2019-03-11T07:17:43.417Z,71.70
2019-03-11T07:20:20.990Z,71.70
2019-03-11T07:22:49.679Z,71.50
2019-03-11T07:25:18.348Z,71.20
2019-03-11T07:27:47.027Z,69.00
2019-03-11T07:30:17.754Z,69.10
2019-03-11T07:32:46.313Z,68.80
2019-03-11T07:35:14.754Z,67.60
2019-03-11T07:37:43.431Z,67.60
2019-03-11T07:40:14.278Z,66.00
2019-03-11T07:42:43.013Z,65.20
2019-03-11T07:45:12.721Z,64.00
2019-03-11T07:47:41.284Z,64.20
2019-03-11T07:50:11.037Z,64.40
2019-03-11T07:52:39.719Z,64.70
2019-03-11T07:55:12.001Z,64.80
2019-03-11T07:57:40.455Z,64.90
2019-03-11T08:00:16.566Z,64.10
2019-03-11T08:02:45.007Z,62.60
2019-03-11T08:05:13.455Z,62.60
2019-03-11T08:07:42.130Z,61.50
2019-03-11T08:10:18.978Z,62.00
2019-03-11T08:12:47.652Z,60.10
2019-03-11T08:15:16.699Z,60.30
2019-03-11T08:17:45.374Z,59.40
2019-03-11T08:20:17.059Z,59.00
2019-03-11T08:22:45.138Z,58.90
2019-03-11T08:25:15.741Z,58.50
2019-03-11T08:27:44.306Z,58.50
2019-03-11T08:30:15.984Z,58.30
2019-03-11T08:32:44.063Z,58.10
2019-03-11T08:35:12.749Z,57.90
2019-03-11T08:37:41.429Z,57.90
2019-03-11T08:40:14.911Z,57.70
2019-03-11T08:42:43.474Z,58.10
2019-03-11T08:45:13.596Z,57.80
2019-03-11T08:47:42.274Z,58.10
2019-03-11T08:50:15.280Z,57.50
2019-03-11T08:52:43.716Z,57.70
2019-03-11T08:55:12.401Z,57.80
2019-03-11T08:57:41.521Z,57.30
2019-03-11T09:00:18.407Z,59.40
2019-03-11T09:02:46.964Z,60.10
2019-03-11T09:05:15.645Z,60.10
2019-03-11T09:07:44.204Z,60.40
2019-03-11T09:10:16.607Z,59.90
2019-03-11T09:12:45.298Z,59.70
2019-03-11T09:15:16.132Z,60.20
2019-03-11T09:17:44.571Z,60.20
2019-03-11T09:20:14.094Z,61.00
2019-03-11T09:22:43.500Z,61.00
2019-03-11T09:25:14.337Z,61.40
2019-03-11T09:27:42.779Z,58.80
2019-03-11T09:30:14.582Z,57.70
2019-03-11T09:32:43.044Z,58.10
2019-03-11T09:35:11.703Z,59.10
2019-03-11T09:37:40.146Z,59.90
2019-03-11T09:40:16.506Z,59.80
2019-03-11T09:42:45.066Z,60.00
2019-03-11T09:45:16.269Z,59.20
2019-03-11T09:47:44.953Z,59.50
2019-03-11T09:50:14.716Z,60.10
2019-03-11T09:52:43.404Z,59.50
2019-03-11T09:55:15.322Z,60.00
2019-03-11T09:57:44.003Z,60.50
2019-03-11T10:00:17.839Z,60.70
2019-03-11T10:02:52.482Z,58.20
2019-03-11T10:05:16.642Z,51.50
2019-03-11T10:07:45.518Z,51.60
2019-03-11T10:10:16.526Z,49.00
2019-03-11T10:12:44.974Z,47.30
2019-03-11T10:15:16.413Z,45.20
2019-03-11T10:17:45.579Z,44.90
2019-03-11T10:20:16.651Z,42.10
2019-03-11T10:22:45.093Z,40.80
2019-03-11T10:25:16.182Z,40.50
2019-03-11T10:27:45.016Z,40.90
2019-03-11T10:30:21.828Z,39.70
2019-03-11T10:32:50.625Z,39.40
2019-03-11T10:35:31.437Z,41.60
2019-03-11T10:37:51.226Z,43.60
2019-03-11T10:40:26.866Z,43.60
2019-03-11T10:42:55.671Z,44.60
2019-03-11T10:45:31.261Z,43.90
2019-03-11T10:47:54.829Z,41.60
2019-03-11T10:50:23.991Z,39.50
2019-03-11T10:52:52.912Z,40.50
2019-03-11T10:55:24.954Z,39.00
2019-03-11T10:57:53.397Z,38.00
2019-03-11T11:00:25.321Z,38.10
2019-03-11T11:02:53.762Z,38.00
2019-03-11T11:05:22.679Z,37.90
2019-03-11T11:07:51.486Z,40.30
2019-03-11T11:10:20.285Z,42.60
2019-03-11T11:12:48.845Z,41.30
2019-03-11T11:15:28.453Z,41.90
2019-03-11T11:17:57.247Z,42.80
2019-03-11T11:20:25.808Z,44.00
2019-03-11T11:22:54.857Z,45.10
2019-03-11T11:25:30.376Z,43.90
2019-03-11T11:27:59.297Z,43.60
2019-03-11T11:30:31.817Z,42.40
2019-03-11T11:33:00.859Z,41.00
2019-03-11T11:35:29.658Z,40.00
2019-03-11T11:37:58.459Z,37.30
2019-03-11T11:40:27.981Z,37.20
2019-03-11T11:42:57.024Z,33.80
2019-03-11T11:45:26.425Z,36.10
2019-03-11T11:47:55.354Z,37.00
2019-03-11T11:50:24.636Z,38.40
2019-03-11T11:52:53.071Z,37.30
2019-03-11T11:55:25.136Z,39.90
2019-03-11T11:57:53.685Z,42.00
2019-03-11T12:00:30.638Z,41.60
2019-03-11T12:03:00.523Z,41.50
2019-03-11T12:05:29.560Z,43.40
2019-03-11T12:07:58.482Z,42.20
2019-03-11T12:10:32.202Z,41.00
2019-03-11T12:13:01.365Z,38.40
2019-03-11T12:15:29.807Z,37.00
2019-03-11T12:17:58.486Z,36.40
2019-03-11T12:20:31.618Z,34.10
2019-03-11T12:23:00.177Z,32.30
2019-03-11T12:25:28.609Z,32.60
2019-03-11T12:27:58.179Z,32.80
2019-03-11T12:30:30.773Z,35.40
2019-03-11T12:32:59.471Z,36.00
2019-03-11T12:35:28.736Z,39.10
2019-03-11T12:37:57.299Z,41.20
2019-03-11T12:40:25.741Z,42.80
2019-03-11T12:42:54.937Z,44.00
2019-03-11T12:45:26.947Z,43.70
2019-03-11T12:47:55.759Z,43.30
2019-03-11T12:50:28.628Z,38.30
2019-03-11T12:52:57.430Z,36.00
2019-03-11T12:55:26.592Z,36.30
2019-03-11T12:57:55.275Z,37.60
2019-03-11T13:00:24.795Z,37.60
2019-03-11T13:02:53.473Z,38.30
2019-03-11T13:05:22.877Z,38.90
2019-03-11T13:07:51.448Z,39.50
2019-03-11T13:10:23.968Z,40.80
2019-03-11T13:12:52.642Z,38.50
2019-03-11T13:15:21.327Z,35.80
2019-03-11T13:17:50.363Z,34.10
2019-03-11T13:20:33.085Z,34.00
2019-03-11T13:23:02.130Z,33.50
2019-03-11T13:25:31.050Z,34.50
2019-03-11T13:27:59.850Z,31.60
2019-03-11T13:30:28.658Z,30.70
2019-03-11T13:32:57.221Z,32.10
2019-03-11T13:35:26.255Z,29.80
2019-03-11T13:37:55.060Z,27.80
2019-03-11T13:40:26.857Z,29.80
2019-03-11T13:42:55.778Z,29.40
2019-03-11T13:45:24.704Z,29.10
2019-03-11T13:47:53.382Z,29.40
2019-03-11T13:50:22.316Z,29.70
2019-03-11T13:52:50.989Z,30.20
2019-03-11T13:55:19.910Z,32.60
2019-03-11T13:57:48.829Z,33.40
2019-03-11T14:00:19.790Z,36.90
2019-03-11T14:02:48.474Z,38.90
2019-03-11T14:05:17.156Z,39.60
2019-03-11T14:07:46.074Z,39.10
2019-03-11T14:10:15.608Z,38.00
2019-03-11T14:12:44.519Z,34.60
2019-03-11T14:15:18.240Z,33.10
2019-03-11T14:17:46.930Z,31.50
2019-03-11T14:20:16.201Z,31.50
2019-03-11T14:22:45.133Z,31.30
2019-03-11T14:25:14.412Z,29.40
2019-03-11T14:27:43.208Z,28.90
2019-03-11T14:30:19.615Z,29.00
2019-03-11T14:32:48.370Z,28.40
2019-03-11T14:35:17.292Z,28.60
2019-03-11T14:37:46.219Z,28.80
2019-03-11T14:40:16.464Z,28.50
2019-03-11T14:42:45.378Z,27.70
2019-03-11T14:45:18.981Z,28.90
2019-03-11T14:47:47.667Z,28.10
2019-03-11T14:50:16.585Z,28.40
2019-03-11T14:52:45.029Z,29.50
2019-03-11T14:55:14.311Z,30.80
2019-03-11T14:57:43.305Z,32.90
2019-03-11T15:00:18.508Z,32.20
2019-03-11T15:02:47.561Z,31.60
2019-03-11T15:05:17.315Z,32.20
2019-03-11T15:07:46.489Z,32.30
2019-03-11T15:10:16.356Z,32.30
2019-03-11T15:12:45.057Z,32.50
2019-03-11T15:15:15.996Z,30.90
2019-03-11T15:17:44.798Z,32.00
2019-03-11T15:20:13.844Z,33.80
2019-03-11T15:23:21.024Z,33.70
2019-03-11T15:25:49.729Z,33.40
2019-03-11T15:28:18.408Z,31.80
2019-03-11T15:30:47.331Z,29.50
2019-03-11T15:33:16.011Z,28.70
2019-03-11T15:35:44.570Z,29.30
2019-03-11T15:38:13.151Z,29.60
2019-03-11T15:40:42.171Z,28.10
2019-03-11T15:43:10.979Z,28.60
2019-03-11T15:45:40.022Z,32.90
2019-03-11T15:48:08.461Z,32.50
2019-03-11T15:50:37.141Z,31.90
2019-03-11T15:53:05.700Z,33.10
2019-03-11T15:55:34.383Z,29.80
2019-03-11T15:58:02.826Z,29.50
2019-03-11T16:00:31.746Z,28.90
2019-03-11T16:03:00.680Z,29.50
2019-03-11T16:05:29.875Z,29.60
2019-03-11T16:07:58.753Z,30.20
2019-03-11T16:10:27.797Z,30.80
2019-03-11T16:12:56.716Z,31.70
2019-03-11T16:15:25.638Z,32.10
2019-03-11T16:17:54.558Z,32.20
2019-03-11T16:20:24.487Z,32.10
2019-03-11T16:22:53.602Z,32.50
2019-03-11T16:25:22.407Z,33.50
2019-03-11T16:27:51.094Z,33.90
2019-03-11T16:30:26.724Z,34.80
2019-03-11T16:33:00.844Z,38.60
2019-03-11T16:35:28.060Z,40.90
2019-03-11T16:37:56.976Z,44.60
2019-03-11T16:40:25.771Z,46.60
2019-03-11T16:42:54.572Z,48.80
2019-03-11T16:45:23.140Z,48.80
2019-03-11T16:47:51.703Z,49.40
2019-03-11T16:50:27.468Z,49.90
2019-03-11T16:52:56.264Z,50.30
2019-03-11T16:55:41.990Z,50.60
2019-03-11T16:58:10.901Z,50.80
2019-03-11T17:00:41.385Z,50.40
2019-03-11T17:03:10.427Z,50.80
2019-03-11T17:05:39.110Z,51.10
2019-03-11T17:08:08.030Z,51.30
2019-03-11T17:10:36.832Z,52.20
2019-03-11T17:13:05.648Z,52.20
2019-03-11T17:15:34.451Z,52.60
2019-03-11T17:18:03.358Z,52.70
2019-03-11T17:20:32.039Z,53.50
2019-03-11T17:23:00.720Z,53.50
2019-03-11T17:25:29.644Z,53.80
2019-03-11T17:27:58.324Z,53.90
2019-03-11T17:30:27.367Z,54.70
2019-03-11T17:32:56.046Z,54.40
2019-03-11T17:35:24.975Z,54.30
2019-03-11T17:37:53.771Z,54.50
2019-03-11T17:40:25.331Z,55.60
2019-03-11T17:42:54.457Z,55.00
2019-03-11T17:45:23.772Z,55.40
2019-03-11T17:47:52.834Z,55.60
2019-03-11T17:50:22.456Z,55.90
2019-03-11T17:52:51.497Z,56.40
2019-03-11T17:55:21.862Z,56.80
2019-03-11T17:57:50.666Z,57.40
2019-03-11T18:00:33.504Z,57.60
2019-03-11T18:03:02.188Z,58.10
2019-03-11T18:05:31.110Z,58.20
2019-03-11T18:07:59.553Z,58.40
2019-03-11T18:10:28.478Z,58.80
2019-03-11T18:12:57.458Z,59.20
2019-03-11T18:15:26.192Z,59.50
2019-03-11T18:17:54.922Z,59.90
2019-03-11T18:20:23.556Z,60.50
2019-03-11T18:22:52.122Z,60.60
2019-03-11T18:25:21.395Z,61.30
2019-03-11T18:27:50.585Z,61.90
2019-03-11T18:30:29.940Z,62.10
2019-03-11T18:32:58.843Z,62.80
2019-03-11T18:35:27.314Z,63.00
2019-03-11T18:38:04.232Z,63.10
2019-03-11T18:40:27.198Z,63.00
2019-03-11T18:42:56.134Z,63.20
2019-03-11T18:45:25.144Z,63.80
2019-03-11T18:47:54.057Z,63.80
2019-03-11T18:50:23.709Z,63.80
2019-03-11T18:52:52.304Z,64.10
2019-03-11T18:55:20.936Z,64.30
2019-03-11T18:57:49.377Z,64.40
2019-03-11T19:00:24.779Z,65.10
2019-03-11T19:02:53.586Z,65.40
2019-03-11T19:05:23.462Z,65.60
2019-03-11T19:07:55.415Z,65.80
2019-03-11T19:10:24.114Z,65.70
2019-03-11T19:12:52.896Z,66.00
2019-03-11T19:15:25.422Z,66.10
2019-03-11T19:17:54.077Z,65.90
2019-03-11T19:20:24.196Z,66.00
2019-03-11T19:22:53.120Z,66.30
2019-03-11T19:25:21.707Z,66.60
2019-03-11T19:27:50.607Z,66.70
2019-03-11T19:30:23.636Z,66.90
2019-03-11T19:32:52.652Z,67.20
2019-03-11T19:35:21.082Z,68.10
2019-03-11T19:37:49.681Z,67.80
2019-03-11T19:40:19.564Z,68.00
2019-03-11T19:42:48.005Z,68.20
2019-03-11T19:45:16.793Z,68.40
2019-03-11T19:47:45.496Z,68.80
2019-03-11T19:50:18.120Z,68.70
2019-03-11T19:52:57.795Z,68.70
2019-03-11T19:55:18.892Z,69.00
2019-03-11T19:57:47.780Z,69.00
2019-03-11T20:00:18.234Z,69.20
2019-03-11T20:02:47.435Z,69.40
2019-03-11T20:05:33.101Z,69.40
2019-03-11T20:08:01.945Z,69.70
2019-03-11T20:10:31.076Z,69.90
2019-03-11T20:13:00.227Z,70.30
2019-03-11T20:15:28.941Z,70.50
2019-03-11T20:17:57.353Z,71.10
2019-03-11T20:20:26.089Z,71.30
2019-03-11T20:22:55.225Z,71.00
2019-03-11T20:25:29.658Z,71.00
2019-03-11T20:27:58.439Z,71.20
2019-03-11T20:30:26.898Z,71.10
2019-03-11T20:32:55.916Z,71.10
2019-03-11T20:35:24.494Z,71.10
2019-03-11T20:37:53.329Z,71.00
2019-03-11T20:40:22.006Z,70.90
2019-03-11T20:42:51.027Z,70.90
2019-03-11T20:45:20.597Z,71.00
2019-03-11T20:47:49.348Z,70.80
2019-03-11T20:50:18.687Z,71.00
2019-03-11T20:52:47.411Z,70.90
2019-03-11T20:55:19.628Z,71.00
2019-03-11T20:57:48.274Z,70.60
2019-03-11T21:00:23.913Z,70.70
2019-03-11T21:02:52.577Z,70.60
2019-03-11T21:05:41.462Z,70.60
2019-03-11T21:08:10.220Z,70.50
2019-03-11T21:10:38.695Z,70.30
2019-03-11T21:13:07.343Z,70.10
2019-03-11T21:15:36.395Z,70.10
2019-03-11T21:18:05.221Z,70.20
2019-03-11T21:20:33.635Z,70.60
2019-03-11T21:23:02.216Z,70.90
2019-03-11T21:25:31.995Z,71.20
2019-03-11T21:28:00.698Z,71.50
2019-03-11T21:30:29.689Z,71.50
2019-03-11T21:32:58.528Z,71.80
2019-03-11T21:35:27.573Z,71.70
2019-03-11T21:37:56.576Z,71.70
2019-03-11T21:40:25.914Z,71.80
2019-03-11T21:42:54.558Z,71.70
2019-03-11T21:45:33.572Z,71.60
2019-03-11T21:47:53.961Z,71.90
2019-03-11T21:50:32.497Z,71.70
2019-03-11T21:53:01.217Z,71.70
2019-03-11T21:55:30.115Z,72.00
2019-03-11T21:57:58.784Z,71.80
2019-03-11T22:00:34.532Z,71.90
2019-03-11T22:02:57.892Z,71.80
2019-03-11T22:05:26.816Z,72.00
2019-03-11T22:07:55.257Z,72.30
2019-03-11T22:10:23.939Z,72.30
2019-03-11T22:12:52.620Z,72.30
2019-03-11T22:15:22.758Z,72.60
2019-03-11T22:17:51.557Z,72.50
2019-03-11T22:20:20.353Z,73.00
2019-03-11T22:22:49.196Z,72.80
2019-03-11T22:25:19.031Z,73.10
2019-03-11T22:27:48.192Z,73.30
2019-03-11T22:30:26.112Z,73.10
2019-03-11T22:32:55.039Z,73.40
2019-03-11T22:35:23.845Z,73.50
2019-03-11T22:37:52.516Z,73.60
2019-03-11T22:40:21.318Z,73.30
2019-03-11T22:42:50.385Z,73.50
2019-03-11T22:45:21.084Z,73.60
2019-03-11T22:47:50.593Z,73.60
2019-03-11T22:50:19.283Z,73.50
2019-03-11T22:52:48.209Z,73.50
2019-03-11T22:55:17.209Z,73.70
2019-03-11T22:57:45.934Z,73.70
2019-03-11T23:00:58.538Z,73.70
2019-03-11T23:03:27.090Z,73.70
2019-03-11T23:05:58.064Z,73.20
2019-03-11T23:08:26.267Z,73.10
2019-03-11T23:10:55.175Z,73.00
2019-03-11T23:13:24.097Z,73.00
2019-03-11T23:15:53.022Z,73.10
2019-03-11T23:18:21.943Z,73.10
2019-03-11T23:20:50.624Z,73.10
2019-03-11T23:23:19.311Z,73.00
2019-03-11T23:25:47.867Z,73.20
2019-03-11T23:28:16.787Z,73.10
2019-03-11T23:30:45.710Z,73.50
2019-03-11T23:33:14.871Z,73.30
2019-03-11T23:35:43.553Z,73.00
2019-03-11T23:38:12.238Z,73.20
2019-03-11T23:40:41.160Z,73.10
2019-03-11T23:43:10.200Z,73.20
2019-03-11T23:45:39.118Z,72.90
2019-03-11T23:48:07.677Z,72.80
2019-03-11T23:50:36.122Z,72.80
2019-03-11T23:53:04.685Z,72.80
2019-03-11T23:55:33.723Z,72.30
2019-03-11T23:58:02.166Z,72.20
